»·PEaware :: N2009X KBFI-KEUG

N2009X :: KBFI-KEUG

FLIGHT INFORMATION

Flight Status: Arrived
Operator: Privately registered:
United States
More flights under this callsign
Pilot: Ryan L. (18770)
Aircraft: PIPER PA-31/31P NAVAJO CHIEFTAIN
(PA31)
More flights by this aircraft type
Origin: KBFI Boeing Field/King Co Intl
United States
Destination: KEUG Mahlon Sweet
United States
More flights between these airports :: More routes between these airports
Route: +
File this flight plan on PilotEdge
Remarks:
Altitude:
(Current/Filed)
0ft
Speed:
(Current/Filed)
0kts
Departed: 02-Jan-19 03:22 PM
Arrived: 02-Jan-19 04:32 PM
Distance/Time
Traveled:
208nm/1:10
Distance/Time
To Go:
Arrived

Flight Plot

Page will automatically refresh every two minutes.

Flight plan parsing failed; only flown route is shown


Map Options




Map Legend


Flown Route
Filed Route
Departure Airport
Arrival Airport
Navaid (VOR, NDB)
Fix

Horizontal Profiles

Position Reports

Time Latitude Longitude Heading Altitude Ground
Speed
02-Jan-19 15:08 47.519462 -122.296176 357 19ft 0kts
02-Jan-19 15:09 47.519462 -122.296176 357 19ft 0kts
02-Jan-19 15:10 47.519462 -122.296176 357 19ft 0kts
02-Jan-19 15:11 47.519462 -122.296176 357 19ft 0kts
02-Jan-19 15:12 47.519786 -122.295574 55 19ft 4kts
02-Jan-19 15:13 47.522586 -122.297707 330 19ft 14kts
02-Jan-19 15:14 47.526156 -122.300734 330 19ft 13kts
02-Jan-19 15:15 47.530592 -122.304480 330 19ft 19kts
02-Jan-19 15:16 47.535331 -122.308476 331 19ft 16kts
02-Jan-19 15:17 47.539538 -122.312055 330 19ft 7kts
02-Jan-19 15:18 47.539889 -122.312183 42 19ft 0kts
02-Jan-19 15:19 47.539889 -122.312183 42 19ft 0kts
02-Jan-19 15:20 47.539853 -122.310753 149 19ft 24kts
02-Jan-19 15:21 47.513507 -122.289923 155 1047ft 134kts
02-Jan-19 15:22 47.474408 -122.257544 152 1494ft 179kts
02-Jan-19 15:23 47.430820 -122.235362 175 1295ft 166kts
02-Jan-19 15:24 47.386711 -122.233807 189 1247ft 161kts
02-Jan-19 15:25 47.346825 -122.257664 187 1191ft 158kts
02-Jan-19 15:26 47.305202 -122.274001 194 1707ft 155kts
02-Jan-19 15:27 47.265754 -122.288671 194 2667ft 160kts
02-Jan-19 15:28 47.223609 -122.304105 194 3642ft 153kts
02-Jan-19 15:29 47.182814 -122.319031 194 4529ft 152kts
02-Jan-19 15:30 47.136327 -122.336028 194 4502ft 181kts
02-Jan-19 15:31 47.087649 -122.353735 194 4501ft 180kts
02-Jan-19 15:32 47.039156 -122.371366 194 4501ft 180kts
02-Jan-19 15:33 46.990155 -122.385626 188 4501ft 180kts
02-Jan-19 15:34 46.940814 -122.394116 187 4795ft 175kts
02-Jan-19 15:35 46.895915 -122.401696 187 5482ft 174kts
02-Jan-19 15:36 46.847920 -122.409821 187 6215ft 178kts
02-Jan-19 15:37 46.798303 -122.418155 187 6995ft 180kts
02-Jan-19 15:38 46.748531 -122.426516 187 7761ft 180kts
02-Jan-19 15:39 46.698964 -122.434833 187 8504ft 179kts
02-Jan-19 15:40 46.649771 -122.443073 187 9220ft 179kts
02-Jan-19 15:41 46.600308 -122.451343 187 9919ft 179kts
02-Jan-19 15:42 46.550373 -122.459687 187 10512ft 188kts
02-Jan-19 15:43 46.496249 -122.468700 187 10505ft 199kts
02-Jan-19 15:44 46.441309 -122.477831 187 10504ft 200kts
02-Jan-19 15:45 46.386216 -122.486972 187 10504ft 200kts
02-Jan-19 15:47 46.331044 -122.496107 187 10504ft 200kts
02-Jan-19 15:48 46.276136 -122.505180 187 10504ft 200kts
02-Jan-19 15:49 46.221047 -122.514265 187 10504ft 200kts
02-Jan-19 15:50 46.165929 -122.523336 187 10504ft 200kts
02-Jan-19 15:51 46.110741 -122.532400 187 10504ft 200kts
02-Jan-19 15:52 46.055609 -122.541437 187 10504ft 200kts
02-Jan-19 15:53 46.000417 -122.550466 187 10504ft 200kts
02-Jan-19 15:54 45.945323 -122.559461 187 10504ft 200kts
02-Jan-19 15:55 45.893620 -122.567885 187 10505ft 200kts
02-Jan-19 15:56 45.839005 -122.576763 187 10505ft 200kts
02-Jan-19 15:57 45.783803 -122.585722 187 10505ft 200kts
02-Jan-19 15:58 45.729279 -122.598943 195 10504ft 200kts
02-Jan-19 15:59 45.675857 -122.619837 195 10505ft 200kts
02-Jan-19 16:00 45.622816 -122.640645 195 10505ft 200kts
02-Jan-19 16:01 45.570064 -122.661294 195 10505ft 200kts
02-Jan-19 16:02 45.516366 -122.682274 195 10505ft 200kts
02-Jan-19 16:03 45.462944 -122.703104 195 10505ft 200kts
02-Jan-19 16:04 45.409440 -122.723924 195 10505ft 200kts
02-Jan-19 16:05 45.359550 -122.743207 195 10356ft 170kts
02-Jan-19 16:06 45.312774 -122.761405 195 9490ft 179kts
02-Jan-19 16:06 45.272398 -122.777044 195 8720ft 181kts
02-Jan-19 16:08 45.215843 -122.798899 195 7668ft 181kts
02-Jan-19 16:08 45.175130 -122.814665 195 7511ft 186kts
02-Jan-19 16:09 45.124569 -122.834102 195 7510ft 190kts
02-Jan-19 16:11 45.064823 -122.857055 195 7509ft 191kts
02-Jan-19 16:11 45.022254 -122.873383 195 7509ft 191kts
02-Jan-19 16:12 44.970948 -122.893031 195 7509ft 191kts
02-Jan-19 16:13 44.919746 -122.912602 195 7509ft 191kts
02-Jan-19 16:14 44.871516 -122.931000 195 7357ft 190kts
02-Jan-19 16:15 44.820737 -122.950320 195 6503ft 188kts
02-Jan-19 16:16 44.770896 -122.969276 195 5651ft 184kts
02-Jan-19 16:17 44.722143 -122.987778 195 4804ft 180kts
02-Jan-19 16:18 44.673637 -123.006215 195 4513ft 182kts
02-Jan-19 16:19 44.625595 -123.024335 195 4513ft 177kts
02-Jan-19 16:20 44.578469 -123.042127 195 4513ft 177kts
02-Jan-19 16:21 44.531092 -123.059982 195 4513ft 177kts
02-Jan-19 16:22 44.483586 -123.077858 195 4513ft 177kts
02-Jan-19 16:23 44.436301 -123.095621 195 4513ft 177kts
02-Jan-19 16:24 44.388655 -123.112746 194 4513ft 177kts
02-Jan-19 16:25 44.342495 -123.134620 210 4513ft 176kts
02-Jan-19 16:26 44.300639 -123.169096 210 4483ft 166kts
02-Jan-19 16:27 44.258933 -123.190692 176 3672ft 164kts
02-Jan-19 16:28 44.216067 -123.194261 190 2437ft 137kts
02-Jan-19 16:29 44.182166 -123.201954 188 1331ft 126kts
02-Jan-19 16:30 44.148210 -123.202993 179 674ft 120kts
02-Jan-19 16:31 44.121407 -123.202588 178 368ft 26kts
02-Jan-19 16:32 44.116648 -123.203598 271 371ft 0kts
02-Jan-19 16:33 44.121348 -123.204106 357 369ft 15kts
02-Jan-19 16:34 44.122216 -123.205834 96 367ft 0kts
02-Jan-19 16:35 44.122216 -123.205834 96 367ft 0kts
02-Jan-19 16:36 44.122216 -123.205834 96 367ft 0kts
02-Jan-19 16:37 44.122216 -123.205834 96 367ft 0kts
02-Jan-19 16:38 44.122216 -123.205834 96 367ft 0kts

Navigation Log

Ident Type
Flight plan parsing failed, navigation log unavailable